sensor_id;sensor_type;location;lat;lon;timestamp;temperature;humidity
39079;DHT22;24829;49.208;12.080;2024-01-07T00:00:03;4.30;99.90
39079;DHT22;24829;49.208;12.080;2024-01-07T00:02:29;4.30;99.90
39079;DHT22;24829;49.208;12.080;2024-01-07T00:04:56;4.30;99.90
39079;DHT22;24829;49.208;12.080;2024-01-07T00:07:21;4.30;99.90
39079;DHT22;24829;49.208;12.080;2024-01-07T00:09:47;4.30;99.90
39079;DHT22;24829;49.208;12.080;2024-01-07T00:12:13;4.20;99.90
39079;DHT22;24829;49.208;12.080;2024-01-07T00:14:38;4.20;99.90
39079;DHT22;24829;49.208;12.080;2024-01-07T00:17:04;4.20;99.90
39079;DHT22;24829;49.208;12.080;2024-01-07T00:19:30;4.20;99.90
39079;DHT22;24829;49.208;12.080;2024-01-07T00:22:01;4.20;99.90
39079;DHT22;24829;49.208;12.080;2024-01-07T00:24:26;4.20;99.90
39079;DHT22;24829;49.208;12.080;2024-01-07T00:26:54;4.20;99.90
39079;DHT22;24829;49.208;12.080;2024-01-07T00:29:20;4.10;99.90
39079;DHT22;24829;49.208;12.080;2024-01-07T00:31:45;4.20;99.90
39079;DHT22;24829;49.208;12.080;2024-01-07T00:34:11;4.20;99.90
39079;DHT22;24829;49.208;12.080;2024-01-07T00:36:37;4.10;99.90
39079;DHT22;24829;49.208;12.080;2024-01-07T00:39:02;4.10;99.90
39079;DHT22;24829;49.208;12.080;2024-01-07T00:41:28;4.10;99.90
39079;DHT22;24829;49.208;12.080;2024-01-07T00:43:55;4.10;99.90
39079;DHT22;24829;49.208;12.080;2024-01-07T00:46:21;4.10;99.90
39079;DHT22;24829;49.208;12.080;2024-01-07T00:48:46;4.10;99.90
39079;DHT22;24829;49.208;12.080;2024-01-07T00:51:12;4.10;99.90
39079;DHT22;24829;49.208;12.080;2024-01-07T00:53:38;4.10;99.90
39079;DHT22;24829;49.208;12.080;2024-01-07T00:56:03;4.10;99.90
39079;DHT22;24829;49.208;12.080;2024-01-07T00:58:29;4.00;99.90
39079;DHT22;24829;49.208;12.080;2024-01-07T01:00:55;4.00;99.90
39079;DHT22;24829;49.208;12.080;2024-01-07T01:03:21;4.00;99.90
39079;DHT22;24829;49.208;12.080;2024-01-07T01:05:46;4.00;99.90
39079;DHT22;24829;49.208;12.080;2024-01-07T01:08:12;4.10;99.90
39079;DHT22;24829;49.208;12.080;2024-01-07T01:10:37;4.00;99.90
39079;DHT22;24829;49.208;12.080;2024-01-07T01:13:03;4.00;99.90
39079;DHT22;24829;49.208;12.080;2024-01-07T01:15:29;4.00;99.90
39079;DHT22;24829;49.208;12.080;2024-01-07T01:17:55;4.10;99.90
39079;DHT22;24829;49.208;12.080;2024-01-07T01:20:20;4.00;99.90
39079;DHT22;24829;49.208;12.080;2024-01-07T01:22:46;4.00;99.90
39079;DHT22;24829;49.208;12.080;2024-01-07T01:25:11;4.00;99.90
39079;DHT22;24829;49.208;12.080;2024-01-07T01:27:37;4.00;99.90
39079;DHT22;24829;49.208;12.080;2024-01-07T01:30:03;4.00;99.90
39079;DHT22;24829;49.208;12.080;2024-01-07T01:32:29;3.90;99.90
39079;DHT22;24829;49.208;12.080;2024-01-07T01:34:54;3.90;99.90
39079;DHT22;24829;49.208;12.080;2024-01-07T01:37:20;4.00;99.90
39079;DHT22;24829;49.208;12.080;2024-01-07T01:39:45;4.00;99.90
39079;DHT22;24829;49.208;12.080;2024-01-07T01:42:11;4.00;99.90
39079;DHT22;24829;49.208;12.080;2024-01-07T01:44:37;3.90;99.90
39079;DHT22;24829;49.208;12.080;2024-01-07T01:47:02;4.00;99.90
39079;DHT22;24829;49.208;12.080;2024-01-07T01:49:28;4.00;99.90
39079;DHT22;24829;49.208;12.080;2024-01-07T01:51:54;4.00;99.90
39079;DHT22;24829;49.208;12.080;2024-01-07T01:54:20;3.90;99.90
39079;DHT22;24829;49.208;12.080;2024-01-07T01:56:47;3.90;99.90
39079;DHT22;24829;49.208;12.080;2024-01-07T01:59:15;3.90;99.90
39079;DHT22;24829;49.208;12.080;2024-01-07T02:01:40;3.90;99.90
39079;DHT22;24829;49.208;12.080;2024-01-07T02:04:06;3.90;99.90
39079;DHT22;24829;49.208;12.080;2024-01-07T02:06:33;3.90;99.90
39079;DHT22;24829;49.208;12.080;2024-01-07T02:08:59;3.90;99.90
39079;DHT22;24829;49.208;12.080;2024-01-07T02:11:25;3.90;99.90
39079;DHT22;24829;49.208;12.080;2024-01-07T02:13:51;3.80;99.90
39079;DHT22;24829;49.208;12.080;2024-01-07T02:16:16;3.80;99.90
39079;DHT22;24829;49.208;12.080;2024-01-07T02:18:44;3.80;99.90
39079;DHT22;24829;49.208;12.080;2024-01-07T02:21:12;3.80;99.90
39079;DHT22;24829;49.208;12.080;2024-01-07T02:23:38;3.80;99.90
39079;DHT22;24829;49.208;12.080;2024-01-07T02:26:04;3.80;99.90
39079;DHT22;24829;49.208;12.080;2024-01-07T02:28:30;3.80;99.90
39079;DHT22;24829;49.208;12.080;2024-01-07T02:30:55;3.70;99.90
39079;DHT22;24829;49.208;12.080;2024-01-07T02:33:21;3.80;99.90
39079;DHT22;24829;49.208;12.080;2024-01-07T02:35:47;3.70;99.90
39079;DHT22;24829;49.208;12.080;2024-01-07T02:38:13;3.70;99.90
39079;DHT22;24829;49.208;12.080;2024-01-07T02:40:38;3.70;99.90
39079;DHT22;24829;49.208;12.080;2024-01-07T02:43:04;3.60;99.90
39079;DHT22;24829;49.208;12.080;2024-01-07T02:45:30;3.70;99.90
39079;DHT22;24829;49.208;12.080;2024-01-07T02:47:55;3.70;99.90
39079;DHT22;24829;49.208;12.080;2024-01-07T02:50:21;3.70;99.90
39079;DHT22;24829;49.208;12.080;2024-01-07T02:52:46;3.70;99.90
39079;DHT22;24829;49.208;12.080;2024-01-07T02:55:12;3.70;99.90
39079;DHT22;24829;49.208;12.080;2024-01-07T02:57:38;3.70;99.90
39079;DHT22;24829;49.208;12.080;2024-01-07T03:00:04;3.70;99.90
39079;DHT22;24829;49.208;12.080;2024-01-07T03:02:30;3.60;99.90
39079;DHT22;24829;49.208;12.080;2024-01-07T03:04:56;3.60;99.90
39079;DHT22;24829;49.208;12.080;2024-01-07T03:07:21;3.60;99.90
39079;DHT22;24829;49.208;12.080;2024-01-07T03:09:48;3.60;99.90
39079;DHT22;24829;49.208;12.080;2024-01-07T03:12:15;3.60;99.90
39079;DHT22;24829;49.208;12.080;2024-01-07T03:14:41;3.60;99.90
39079;DHT22;24829;49.208;12.080;2024-01-07T03:17:06;3.60;99.90
39079;DHT22;24829;49.208;12.080;2024-01-07T03:19:32;3.60;99.90
39079;DHT22;24829;49.208;12.080;2024-01-07T03:21:58;3.60;99.90
39079;DHT22;24829;49.208;12.080;2024-01-07T03:24:24;3.60;99.90
39079;DHT22;24829;49.208;12.080;2024-01-07T03:26:50;3.50;99.90
39079;DHT22;24829;49.208;12.080;2024-01-07T03:29:15;3.50;99.90
39079;DHT22;24829;49.208;12.080;2024-01-07T03:31:41;3.50;99.90
39079;DHT22;24829;49.208;12.080;2024-01-07T03:34:06;3.50;99.90
39079;DHT22;24829;49.208;12.080;2024-01-07T03:36:32;3.40;99.90
39079;DHT22;24829;49.208;12.080;2024-01-07T03:38:58;3.40;99.90
39079;DHT22;24829;49.208;12.080;2024-01-07T03:41:23;3.40;99.90
39079;DHT22;24829;49.208;12.080;2024-01-07T03:43:49;3.30;99.90
39079;DHT22;24829;49.208;12.080;2024-01-07T03:46:16;3.30;99.90
39079;DHT22;24829;49.208;12.080;2024-01-07T03:48:42;3.20;99.90
39079;DHT22;24829;49.208;12.080;2024-01-07T03:51:08;3.20;99.90
39079;DHT22;24829;49.208;12.080;2024-01-07T03:53:33;3.20;99.90
39079;DHT22;24829;49.208;12.080;2024-01-07T03:55:59;3.10;99.90
39079;DHT22;24829;49.208;12.080;2024-01-07T03:58:25;3.10;99.90
39079;DHT22;24829;49.208;12.080;2024-01-07T04:00:50;3.10;99.90
39079;DHT22;24829;49.208;12.080;2024-01-07T04:03:16;3.00;99.90
39079;DHT22;24829;49.208;12.080;2024-01-07T04:05:42;3.00;99.90
39079;DHT22;24829;49.208;12.080;2024-01-07T04:08:11;3.10;99.90
39079;DHT22;24829;49.208;12.080;2024-01-07T04:10:38;3.10;99.90
39079;DHT22;24829;49.208;12.080;2024-01-07T04:13:04;3.10;99.90
39079;DHT22;24829;49.208;12.080;2024-01-07T04:15:30;3.10;99.90
39079;DHT22;24829;49.208;12.080;2024-01-07T04:17:55;3.10;99.90
39079;DHT22;24829;49.208;12.080;2024-01-07T04:20:21;3.10;99.90
39079;DHT22;24829;49.208;12.080;2024-01-07T04:22:47;3.00;99.90
39079;DHT22;24829;49.208;12.080;2024-01-07T04:25:12;3.10;99.90
39079;DHT22;24829;49.208;12.080;2024-01-07T04:27:38;3.10;99.90
39079;DHT22;24829;49.208;12.080;2024-01-07T04:30:05;3.10;99.90
39079;DHT22;24829;49.208;12.080;2024-01-07T04:32:31;3.10;99.90
39079;DHT22;24829;49.208;12.080;2024-01-07T04:34:57;3.00;99.90
39079;DHT22;24829;49.208;12.080;2024-01-07T04:37:26;3.10;99.90
39079;DHT22;24829;49.208;12.080;2024-01-07T04:39:52;3.00;99.90
39079;DHT22;24829;49.208;12.080;2024-01-07T04:42:18;3.10;99.90
39079;DHT22;24829;49.208;12.080;2024-01-07T04:44:44;3.10;99.90
39079;DHT22;24829;49.208;12.080;2024-01-07T04:47:29;3.10;99.90
39079;DHT22;24829;49.208;12.080;2024-01-07T04:49:56;3.10;99.90
39079;DHT22;24829;49.208;12.080;2024-01-07T04:52:25;3.10;99.90
39079;DHT22;24829;49.208;12.080;2024-01-07T04:54:52;3.00;99.90
39079;DHT22;24829;49.208;12.080;2024-01-07T04:57:18;3.10;99.90
39079;DHT22;24829;49.208;12.080;2024-01-07T04:59:44;3.10;99.90
39079;DHT22;24829;49.208;12.080;2024-01-07T05:02:10;3.20;99.90
39079;DHT22;24829;49.208;12.080;2024-01-07T05:04:36;3.10;99.90
39079;DHT22;24829;49.208;12.080;2024-01-07T05:07:02;3.10;99.90
39079;DHT22;24829;49.208;12.080;2024-01-07T05:09:27;3.10;99.90
39079;DHT22;24829;49.208;12.080;2024-01-07T05:11:53;3.10;99.90
39079;DHT22;24829;49.208;12.080;2024-01-07T05:14:19;3.00;99.90
39079;DHT22;24829;49.208;12.080;2024-01-07T05:16:44;3.00;99.90
39079;DHT22;24829;49.208;12.080;2024-01-07T05:19:10;2.90;99.90
39079;DHT22;24829;49.208;12.080;2024-01-07T05:21:36;2.90;99.90
39079;DHT22;24829;49.208;12.080;2024-01-07T05:24:01;2.90;99.90
39079;DHT22;24829;49.208;12.080;2024-01-07T05:26:27;2.90;99.90
39079;DHT22;24829;49.208;12.080;2024-01-07T05:28:52;2.90;99.90
39079;DHT22;24829;49.208;12.080;2024-01-07T05:31:18;2.90;99.90
39079;DHT22;24829;49.208;12.080;2024-01-07T05:33:45;2.80;99.90
39079;DHT22;24829;49.208;12.080;2024-01-07T05:36:11;2.90;99.90
39079;DHT22;24829;49.208;12.080;2024-01-07T05:38:37;2.90;99.90
39079;DHT22;24829;49.208;12.080;2024-01-07T05:41:02;2.90;99.90
39079;DHT22;24829;49.208;12.080;2024-01-07T05:43:28;2.90;99.90
39079;DHT22;24829;49.208;12.080;2024-01-07T05:45:54;2.80;99.90
39079;DHT22;24829;49.208;12.080;2024-01-07T05:48:22;2.80;99.90
39079;DHT22;24829;49.208;12.080;2024-01-07T05:50:49;2.80;99.90
39079;DHT22;24829;49.208;12.080;2024-01-07T05:53:15;2.80;99.90
39079;DHT22;24829;49.208;12.080;2024-01-07T05:55:40;2.80;99.90
39079;DHT22;24829;49.208;12.080;2024-01-07T05:58:06;2.90;99.90
39079;DHT22;24829;49.208;12.080;2024-01-07T06:00:31;2.90;99.90
39079;DHT22;24829;49.208;12.080;2024-01-07T06:02:57;2.90;99.90
39079;DHT22;24829;49.208;12.080;2024-01-07T06:05:23;2.80;99.90
39079;DHT22;24829;49.208;12.080;2024-01-07T06:07:49;2.80;99.90
39079;DHT22;24829;49.208;12.080;2024-01-07T06:10:15;2.80;99.90
39079;DHT22;24829;49.208;12.080;2024-01-07T06:12:40;2.80;99.90
39079;DHT22;24829;49.208;12.080;2024-01-07T06:15:06;2.80;99.90
39079;DHT22;24829;49.208;12.080;2024-01-07T06:17:32;2.80;99.90
39079;DHT22;24829;49.208;12.080;2024-01-07T06:19:58;2.80;99.90
39079;DHT22;24829;49.208;12.080;2024-01-07T06:22:23;2.80;99.90
39079;DHT22;24829;49.208;12.080;2024-01-07T06:24:49;2.80;99.90
39079;DHT22;24829;49.208;12.080;2024-01-07T06:27:15;2.80;99.90
39079;DHT22;24829;49.208;12.080;2024-01-07T06:29:40;2.80;99.90
39079;DHT22;24829;49.208;12.080;2024-01-07T06:32:06;2.80;99.90
39079;DHT22;24829;49.208;12.080;2024-01-07T06:34:32;2.80;99.90
39079;DHT22;24829;49.208;12.080;2024-01-07T06:36:58;2.80;99.90
39079;DHT22;24829;49.208;12.080;2024-01-07T06:39:24;2.80;99.90
39079;DHT22;24829;49.208;12.080;2024-01-07T06:41:52;2.80;99.90
39079;DHT22;24829;49.208;12.080;2024-01-07T06:44:18;2.80;99.90
39079;DHT22;24829;49.208;12.080;2024-01-07T06:46:44;2.80;99.90
39079;DHT22;24829;49.208;12.080;2024-01-07T06:49:09;2.90;99.90
39079;DHT22;24829;49.208;12.080;2024-01-07T06:51:35;2.80;99.90
39079;DHT22;24829;49.208;12.080;2024-01-07T06:54:01;2.80;99.90
39079;DHT22;24829;49.208;12.080;2024-01-07T06:56:27;2.80;99.90
39079;DHT22;24829;49.208;12.080;2024-01-07T06:58:52;2.80;99.90
39079;DHT22;24829;49.208;12.080;2024-01-07T07:01:20;2.90;99.90
39079;DHT22;24829;49.208;12.080;2024-01-07T07:03:47;2.90;99.90
39079;DHT22;24829;49.208;12.080;2024-01-07T07:06:12;2.90;99.90
39079;DHT22;24829;49.208;12.080;2024-01-07T07:08:38;2.80;99.90
39079;DHT22;24829;49.208;12.080;2024-01-07T07:11:03;2.80;99.90
39079;DHT22;24829;49.208;12.080;2024-01-07T07:13:29;2.80;99.90
39079;DHT22;24829;49.208;12.080;2024-01-07T07:15:55;2.80;99.90
39079;DHT22;24829;49.208;12.080;2024-01-07T07:18:20;2.80;99.90
39079;DHT22;24829;49.208;12.080;2024-01-07T07:20:47;2.80;99.90
39079;DHT22;24829;49.208;12.080;2024-01-07T07:23:12;2.70;99.90
39079;DHT22;24829;49.208;12.080;2024-01-07T07:25:39;2.70;99.90
39079;DHT22;24829;49.208;12.080;2024-01-07T07:28:04;2.70;99.90
39079;DHT22;24829;49.208;12.080;2024-01-07T07:30:30;2.70;99.90
39079;DHT22;24829;49.208;12.080;2024-01-07T07:32:56;2.70;99.90
39079;DHT22;24829;49.208;12.080;2024-01-07T07:35:21;2.60;99.90
39079;DHT22;24829;49.208;12.080;2024-01-07T07:37:47;2.60;99.90
39079;DHT22;24829;49.208;12.080;2024-01-07T07:40:13;2.60;99.90
39079;DHT22;24829;49.208;12.080;2024-01-07T07:42:39;2.60;99.90
39079;DHT22;24829;49.208;12.080;2024-01-07T07:45:05;2.60;99.90
39079;DHT22;24829;49.208;12.080;2024-01-07T07:47:31;2.60;99.90
39079;DHT22;24829;49.208;12.080;2024-01-07T07:49:57;2.60;99.90
39079;DHT22;24829;49.208;12.080;2024-01-07T07:52:23;2.60;99.90
39079;DHT22;24829;49.208;12.080;2024-01-07T07:54:52;2.60;99.90
39079;DHT22;24829;49.208;12.080;2024-01-07T07:57:17;2.60;99.90
39079;DHT22;24829;49.208;12.080;2024-01-07T07:59:45;2.60;99.90
39079;DHT22;24829;49.208;12.080;2024-01-07T08:02:12;2.50;99.90
39079;DHT22;24829;49.208;12.080;2024-01-07T08:04:37;2.50;99.90
39079;DHT22;24829;49.208;12.080;2024-01-07T08:07:06;2.50;99.90
39079;DHT22;24829;49.208;12.080;2024-01-07T08:09:32;2.60;99.90
39079;DHT22;24829;49.208;12.080;2024-01-07T08:11:58;2.60;99.90
39079;DHT22;24829;49.208;12.080;2024-01-07T08:14:23;2.60;99.90
39079;DHT22;24829;49.208;12.080;2024-01-07T08:16:49;2.60;99.90
39079;DHT22;24829;49.208;12.080;2024-01-07T08:19:15;2.50;99.90
39079;DHT22;24829;49.208;12.080;2024-01-07T08:21:40;2.50;99.90
39079;DHT22;24829;49.208;12.080;2024-01-07T08:24:06;2.50;99.90
39079;DHT22;24829;49.208;12.080;2024-01-07T08:26:32;2.50;99.90
39079;DHT22;24829;49.208;12.080;2024-01-07T08:28:57;2.40;99.90
39079;DHT22;24829;49.208;12.080;2024-01-07T08:31:23;2.40;99.90
39079;DHT22;24829;49.208;12.080;2024-01-07T08:33:49;2.40;99.90
39079;DHT22;24829;49.208;12.080;2024-01-07T08:36:15;2.40;99.90
39079;DHT22;24829;49.208;12.080;2024-01-07T08:38:40;2.40;99.90
39079;DHT22;24829;49.208;12.080;2024-01-07T08:41:06;2.50;99.90
39079;DHT22;24829;49.208;12.080;2024-01-07T08:43:32;2.40;99.90
39079;DHT22;24829;49.208;12.080;2024-01-07T08:45:57;2.50;99.90
39079;DHT22;24829;49.208;12.080;2024-01-07T08:48:23;2.40;99.90
39079;DHT22;24829;49.208;12.080;2024-01-07T08:50:49;2.40;99.90
39079;DHT22;24829;49.208;12.080;2024-01-07T08:53:15;2.30;99.90
39079;DHT22;24829;49.208;12.080;2024-01-07T08:55:41;2.30;99.90
39079;DHT22;24829;49.208;12.080;2024-01-07T08:58:06;2.20;99.90
39079;DHT22;24829;49.208;12.080;2024-01-07T09:00:32;2.20;99.90
39079;DHT22;24829;49.208;12.080;2024-01-07T09:02:58;2.30;99.90
39079;DHT22;24829;49.208;12.080;2024-01-07T09:05:23;2.30;99.90
39079;DHT22;24829;49.208;12.080;2024-01-07T09:07:51;2.30;99.90
39079;DHT22;24829;49.208;12.080;2024-01-07T09:10:17;2.30;99.90
39079;DHT22;24829;49.208;12.080;2024-01-07T09:12:44;2.20;99.90
39079;DHT22;24829;49.208;12.080;2024-01-07T09:15:10;2.10;99.90
39079;DHT22;24829;49.208;12.080;2024-01-07T09:17:38;2.10;99.90
39079;DHT22;24829;49.208;12.080;2024-01-07T09:20:05;2.00;99.90
39079;DHT22;24829;49.208;12.080;2024-01-07T09:22:33;2.00;99.90
39079;DHT22;24829;49.208;12.080;2024-01-07T09:25:01;2.00;99.90
39079;DHT22;24829;49.208;12.080;2024-01-07T09:27:26;1.90;99.90
39079;DHT22;24829;49.208;12.080;2024-01-07T09:29:52;1.90;99.90
39079;DHT22;24829;49.208;12.080;2024-01-07T09:32:17;1.90;99.90
39079;DHT22;24829;49.208;12.080;2024-01-07T09:34:43;1.90;99.90
39079;DHT22;24829;49.208;12.080;2024-01-07T09:37:09;1.80;99.90
39079;DHT22;24829;49.208;12.080;2024-01-07T09:39:39;1.80;99.90
39079;DHT22;24829;49.208;12.080;2024-01-07T09:42:09;1.90;99.90
39079;DHT22;24829;49.208;12.080;2024-01-07T09:44:37;1.90;99.90
39079;DHT22;24829;49.208;12.080;2024-01-07T09:47:05;1.90;99.90
39079;DHT22;24829;49.208;12.080;2024-01-07T09:49:30;1.90;99.90
39079;DHT22;24829;49.208;12.080;2024-01-07T09:51:59;1.90;99.90
39079;DHT22;24829;49.208;12.080;2024-01-07T09:54:28;1.90;99.90
39079;DHT22;24829;49.208;12.080;2024-01-07T09:57:01;1.90;99.90
39079;DHT22;24829;49.208;12.080;2024-01-07T09:59:30;1.80;99.90
39079;DHT22;24829;49.208;12.080;2024-01-07T10:01:57;1.80;99.90
39079;DHT22;24829;49.208;12.080;2024-01-07T10:04:26;1.80;99.90
39079;DHT22;24829;49.208;12.080;2024-01-07T10:06:53;1.80;99.90
39079;DHT22;24829;49.208;12.080;2024-01-07T10:09:21;1.80;99.90
39079;DHT22;24829;49.208;12.080;2024-01-07T10:11:47;1.70;99.90
39079;DHT22;24829;49.208;12.080;2024-01-07T10:14:13;1.70;99.90
39079;DHT22;24829;49.208;12.080;2024-01-07T10:16:39;1.60;99.90
39079;DHT22;24829;49.208;12.080;2024-01-07T10:19:05;1.60;99.90
39079;DHT22;24829;49.208;12.080;2024-01-07T10:21:30;1.50;99.90
39079;DHT22;24829;49.208;12.080;2024-01-07T10:24:09;1.50;99.90
39079;DHT22;24829;49.208;12.080;2024-01-07T10:26:38;1.50;99.90
39079;DHT22;24829;49.208;12.080;2024-01-07T10:29:05;1.40;99.90
39079;DHT22;24829;49.208;12.080;2024-01-07T10:31:37;1.50;99.90
39079;DHT22;24829;49.208;12.080;2024-01-07T10:34:03;1.40;99.90
39079;DHT22;24829;49.208;12.080;2024-01-07T10:36:32;1.50;99.90
39079;DHT22;24829;49.208;12.080;2024-01-07T10:38:57;1.40;99.90
39079;DHT22;24829;49.208;12.080;2024-01-07T10:41:24;1.40;99.90
39079;DHT22;24829;49.208;12.080;2024-01-07T10:43:50;1.40;99.90
39079;DHT22;24829;49.208;12.080;2024-01-07T10:46:16;1.40;99.90
39079;DHT22;24829;49.208;12.080;2024-01-07T10:48:55;1.50;99.90
39079;DHT22;24829;49.208;12.080;2024-01-07T10:51:24;1.30;99.90
39079;DHT22;24829;49.208;12.080;2024-01-07T10:53:53;1.40;99.90
39079;DHT22;24829;49.208;12.080;2024-01-07T10:56:25;1.30;99.90
39079;DHT22;24829;49.208;12.080;2024-01-07T10:58:57;1.30;99.90
39079;DHT22;24829;49.208;12.080;2024-01-07T11:01:23;1.30;99.90
39079;DHT22;24829;49.208;12.080;2024-01-07T11:04:04;1.30;99.90
39079;DHT22;24829;49.208;12.080;2024-01-07T11:06:55;1.30;99.90
39079;DHT22;24829;49.208;12.080;2024-01-07T11:09:30;1.40;99.90
39079;DHT22;24829;49.208;12.080;2024-01-07T11:11:59;1.30;99.90
39079;DHT22;24829;49.208;12.080;2024-01-07T11:14:38;1.30;99.90
39079;DHT22;24829;49.208;12.080;2024-01-07T11:17:11;1.30;99.90
39079;DHT22;24829;49.208;12.080;2024-01-07T11:19:38;1.30;99.90
39079;DHT22;24829;49.208;12.080;2024-01-07T11:24:50;1.30;99.90
39079;DHT22;24829;49.208;12.080;2024-01-07T11:27:16;1.30;99.90
39079;DHT22;24829;49.208;12.080;2024-01-07T11:29:42;1.40;99.90
39079;DHT22;24829;49.208;12.080;2024-01-07T11:32:07;1.40;99.90
39079;DHT22;24829;49.208;12.080;2024-01-07T11:34:43;1.30;99.90
39079;DHT22;24829;49.208;12.080;2024-01-07T11:37:13;1.30;99.90
39079;DHT22;24829;49.208;12.080;2024-01-07T11:39:46;1.40;99.90
39079;DHT22;24829;49.208;12.080;2024-01-07T11:42:12;1.30;99.90
39079;DHT22;24829;49.208;12.080;2024-01-07T11:44:44;1.30;99.90
39079;DHT22;24829;49.208;12.080;2024-01-07T11:47:10;1.30;99.90
39079;DHT22;24829;49.208;12.080;2024-01-07T11:49:36;1.40;99.90
39079;DHT22;24829;49.208;12.080;2024-01-07T11:52:03;1.40;99.90
39079;DHT22;24829;49.208;12.080;2024-01-07T11:54:29;1.40;99.90
39079;DHT22;24829;49.208;12.080;2024-01-07T11:56:56;1.40;99.90
39079;DHT22;24829;49.208;12.080;2024-01-07T11:59:22;1.50;99.90
39079;DHT22;24829;49.208;12.080;2024-01-07T12:01:48;1.50;99.90
39079;DHT22;24829;49.208;12.080;2024-01-07T12:04:14;1.40;99.90
39079;DHT22;24829;49.208;12.080;2024-01-07T12:06:40;1.40;99.90
39079;DHT22;24829;49.208;12.080;2024-01-07T12:09:05;1.40;99.90
39079;DHT22;24829;49.208;12.080;2024-01-07T12:11:31;1.40;99.90
39079;DHT22;24829;49.208;12.080;2024-01-07T12:13:57;1.40;99.90
39079;DHT22;24829;49.208;12.080;2024-01-07T12:16:24;1.30;99.90
39079;DHT22;24829;49.208;12.080;2024-01-07T12:18:50;1.30;99.90
39079;DHT22;24829;49.208;12.080;2024-01-07T12:21:22;1.30;99.90
39079;DHT22;24829;49.208;12.080;2024-01-07T12:23:48;1.30;99.90
39079;DHT22;24829;49.208;12.080;2024-01-07T12:26:16;1.30;99.90
39079;DHT22;24829;49.208;12.080;2024-01-07T12:28:42;1.20;99.90
39079;DHT22;24829;49.208;12.080;2024-01-07T12:31:08;1.20;99.90
39079;DHT22;24829;49.208;12.080;2024-01-07T12:33:36;1.20;99.90
39079;DHT22;24829;49.208;12.080;2024-01-07T12:36:03;1.20;99.90
39079;DHT22;24829;49.208;12.080;2024-01-07T12:38:28;1.20;99.90
39079;DHT22;24829;49.208;12.080;2024-01-07T12:40:54;1.20;99.90
39079;DHT22;24829;49.208;12.080;2024-01-07T12:43:20;1.20;99.90
39079;DHT22;24829;49.208;12.080;2024-01-07T12:45:47;1.10;99.90
39079;DHT22;24829;49.208;12.080;2024-01-07T12:48:13;1.10;99.90
39079;DHT22;24829;49.208;12.080;2024-01-07T12:50:38;1.10;99.90
39079;DHT22;24829;49.208;12.080;2024-01-07T12:53:04;1.20;99.90
39079;DHT22;24829;49.208;12.080;2024-01-07T12:55:31;1.10;99.90
39079;DHT22;24829;49.208;12.080;2024-01-07T12:57:57;1.10;99.90
39079;DHT22;24829;49.208;12.080;2024-01-07T13:00:24;1.10;99.90
39079;DHT22;24829;49.208;12.080;2024-01-07T13:02:50;1.10;99.90
39079;DHT22;24829;49.208;12.080;2024-01-07T13:05:16;1.10;99.90
39079;DHT22;24829;49.208;12.080;2024-01-07T13:07:42;1.20;99.90
39079;DHT22;24829;49.208;12.080;2024-01-07T13:10:08;1.20;99.90
39079;DHT22;24829;49.208;12.080;2024-01-07T13:12:35;1.20;99.90
39079;DHT22;24829;49.208;12.080;2024-01-07T13:15:02;1.20;99.90
39079;DHT22;24829;49.208;12.080;2024-01-07T13:17:27;1.10;99.90
39079;DHT22;24829;49.208;12.080;2024-01-07T13:19:55;1.10;99.90
39079;DHT22;24829;49.208;12.080;2024-01-07T13:22:21;1.10;99.90
39079;DHT22;24829;49.208;12.080;2024-01-07T13:24:47;1.00;99.90
39079;DHT22;24829;49.208;12.080;2024-01-07T13:27:12;0.90;99.90
39079;DHT22;24829;49.208;12.080;2024-01-07T13:29:38;0.90;99.90
39079;DHT22;24829;49.208;12.080;2024-01-07T13:32:04;0.90;99.90
39079;DHT22;24829;49.208;12.080;2024-01-07T13:34:30;0.90;99.90
39079;DHT22;24829;49.208;12.080;2024-01-07T13:36:56;1.00;99.90
39079;DHT22;24829;49.208;12.080;2024-01-07T13:39:22;1.00;99.90
39079;DHT22;24829;49.208;12.080;2024-01-07T13:41:47;0.90;99.90
39079;DHT22;24829;49.208;12.080;2024-01-07T13:44:13;0.90;99.90
39079;DHT22;24829;49.208;12.080;2024-01-07T13:46:45;0.90;99.90
39079;DHT22;24829;49.208;12.080;2024-01-07T13:49:15;1.00;99.90
39079;DHT22;24829;49.208;12.080;2024-01-07T13:51:44;1.00;99.90
39079;DHT22;24829;49.208;12.080;2024-01-07T13:54:10;1.00;99.90
39079;DHT22;24829;49.208;12.080;2024-01-07T13:56:43;1.00;99.90
39079;DHT22;24829;49.208;12.080;2024-01-07T13:59:10;1.00;99.90
39079;DHT22;24829;49.208;12.080;2024-01-07T14:01:36;0.90;99.90
39079;DHT22;24829;49.208;12.080;2024-01-07T14:04:03;0.90;99.90
39079;DHT22;24829;49.208;12.080;2024-01-07T14:06:28;0.90;99.90
39079;DHT22;24829;49.208;12.080;2024-01-07T14:08:54;0.90;99.90
39079;DHT22;24829;49.208;12.080;2024-01-07T14:11:20;0.90;99.90
39079;DHT22;24829;49.208;12.080;2024-01-07T14:13:46;0.80;99.90
39079;DHT22;24829;49.208;12.080;2024-01-07T14:16:15;0.90;99.90
39079;DHT22;24829;49.208;12.080;2024-01-07T14:18:41;0.90;99.90
39079;DHT22;24829;49.208;12.080;2024-01-07T14:21:07;0.90;99.90
39079;DHT22;24829;49.208;12.080;2024-01-07T14:23:36;1.00;99.90
39079;DHT22;24829;49.208;12.080;2024-01-07T14:26:02;1.00;99.90
39079;DHT22;24829;49.208;12.080;2024-01-07T14:28:28;1.10;99.90
39079;DHT22;24829;49.208;12.080;2024-01-07T14:30:54;1.10;99.90
39079;DHT22;24829;49.208;12.080;2024-01-07T14:33:19;1.10;99.90
39079;DHT22;24829;49.208;12.080;2024-01-07T14:35:45;1.10;99.90
39079;DHT22;24829;49.208;12.080;2024-01-07T14:38:10;1.10;99.90
39079;DHT22;24829;49.208;12.080;2024-01-07T14:40:36;1.10;99.90
39079;DHT22;24829;49.208;12.080;2024-01-07T14:43:02;1.10;99.90
39079;DHT22;24829;49.208;12.080;2024-01-07T14:45:27;1.10;99.90
39079;DHT22;24829;49.208;12.080;2024-01-07T14:47:54;1.10;99.90
39079;DHT22;24829;49.208;12.080;2024-01-07T14:50:20;1.10;99.90
39079;DHT22;24829;49.208;12.080;2024-01-07T14:52:46;1.10;99.90
39079;DHT22;24829;49.208;12.080;2024-01-07T14:55:12;1.10;99.90
39079;DHT22;24829;49.208;12.080;2024-01-07T14:57:41;1.10;99.90
39079;DHT22;24829;49.208;12.080;2024-01-07T15:00:07;1.10;99.90
39079;DHT22;24829;49.208;12.080;2024-01-07T15:02:34;1.10;99.90
39079;DHT22;24829;49.208;12.080;2024-01-07T15:05:00;1.10;99.90
39079;DHT22;24829;49.208;12.080;2024-01-07T15:07:26;1.10;99.90
39079;DHT22;24829;49.208;12.080;2024-01-07T15:09:51;1.20;99.90
39079;DHT22;24829;49.208;12.080;2024-01-07T15:12:17;1.10;99.90
39079;DHT22;24829;49.208;12.080;2024-01-07T15:14:44;1.00;99.90
39079;DHT22;24829;49.208;12.080;2024-01-07T15:17:10;1.10;99.90
39079;DHT22;24829;49.208;12.080;2024-01-07T15:19:35;1.10;99.90
39079;DHT22;24829;49.208;12.080;2024-01-07T15:22:01;1.10;99.90
39079;DHT22;24829;49.208;12.080;2024-01-07T15:24:28;1.00;99.90
39079;DHT22;24829;49.208;12.080;2024-01-07T15:26:54;1.10;99.90